Terminal Aerodrome Forecast
Issued by NWS

Home | Current Version | Previous Version | Graphics & Text | Print | Product List | Glossary On
Versions: 1 2 3 4 5 6 7 8 9 10 11 12 13 14 15 16 17 18
278
FTUS43 KGRB 040525
TAFATW
TAF
KATW 040525Z 0406/0506 29007KT P6SM -SHSN BKN028
     FM041000 28006KT P6SM BKN030
     FM041300 26005KT P6SM SCT035
     FM042200 21005KT P6SM BKN030
     FM050100 22004KT 3SM -SN OVC020=

USA.gov is the U.S. government's official web portal to all federal, state and local government web resources and services.